sensor_id;sensor_type;location;lat;lon;timestamp;pressure;altitude;pressure_sealevel;temperature;humidity
56334;BME280;42240;53.626;55.886;2023-10-13T00:00:48;76778.28;;;-145.10;100.00
56334;BME280;42240;53.626;55.886;2023-10-13T00:02:20;76786.19;;;-145.10;100.00
56334;BME280;42240;53.626;55.886;2023-10-13T00:03:55;76782.22;;;-145.10;100.00
56334;BME280;42240;53.626;55.886;2023-10-13T00:05:28;76782.22;;;-145.10;100.00
56334;BME280;42240;53.626;55.886;2023-10-13T00:07:03;76778.28;;;-145.10;100.00
56334;BME280;42240;53.626;55.886;2023-10-13T00:08:36;76778.28;;;-145.10;100.00
56334;BME280;42240;53.626;55.886;2023-10-13T00:10:09;76776.28;;;-145.10;100.00
56334;BME280;42240;53.626;55.886;2023-10-13T00:11:42;76786.19;;;-145.10;100.00
56334;BME280;42240;53.626;55.886;2023-10-13T00:13:18;76774.31;;;-145.10;100.00
56334;BME280;42240;53.626;55.886;2023-10-13T00:14:52;76774.31;;;-145.10;100.00
56334;BME280;42240;53.626;55.886;2023-10-13T00:16:26;76770.38;;;-145.10;100.00
56334;BME280;42240;53.626;55.886;2023-10-13T00:17:59;76770.38;;;-145.10;100.00
56334;BME280;42240;53.626;55.886;2023-10-13T00:19:33;76764.44;;;-145.10;100.00
56334;BME280;42240;53.626;55.886;2023-10-13T00:21:17;76762.44;;;-145.10;100.00
56334;BME280;42240;53.626;55.886;2023-10-13T00:23:05;76756.53;;;-145.10;100.00
56334;BME280;42240;53.626;55.886;2023-10-13T00:24:39;76758.50;;;-145.10;100.00
56334;BME280;42240;53.626;55.886;2023-10-13T00:26:15;76754.53;;;-145.10;100.00
56334;BME280;42240;53.626;55.886;2023-10-13T00:27:55;76742.69;;;-145.10;100.00
56334;BME280;42240;53.626;55.886;2023-10-13T00:29:27;76744.66;;;-145.10;100.00
56334;BME280;42240;53.626;55.886;2023-10-13T00:31:02;76746.63;;;-145.10;100.00
56334;BME280;42240;53.626;55.886;2023-10-13T00:32:43;76750.59;;;-145.10;100.00
56334;BME280;42240;53.626;55.886;2023-10-13T00:34:17;76750.59;;;-145.10;100.00
56334;BME280;42240;53.626;55.886;2023-10-13T00:36:05;76750.59;;;-145.10;100.00
56334;BME280;42240;53.626;55.886;2023-10-13T00:37:40;76754.53;;;-145.10;100.00
56334;BME280;42240;53.626;55.886;2023-10-13T00:39:17;76754.53;;;-145.10;100.00
56334;BME280;42240;53.626;55.886;2023-10-13T00:40:50;76746.63;;;-145.10;100.00
56334;BME280;42240;53.626;55.886;2023-10-13T00:42:26;76746.63;;;-145.10;100.00
56334;BME280;42240;53.626;55.886;2023-10-13T00:44:19;76750.59;;;-145.10;100.00
56334;BME280;42240;53.626;55.886;2023-10-13T00:46:01;76744.66;;;-145.10;100.00
56334;BME280;42240;53.626;55.886;2023-10-13T00:47:37;76740.69;;;-145.10;100.00
56334;BME280;42240;53.626;55.886;2023-10-13T00:49:21;76740.69;;;-145.10;100.00
56334;BME280;42240;53.626;55.886;2023-10-13T00:50:58;76726.84;;;-145.10;100.00
56334;BME280;42240;53.626;55.886;2023-10-13T00:52:35;76726.84;;;-145.10;100.00
56334;BME280;42240;53.626;55.886;2023-10-13T00:54:08;76722.91;;;-145.10;100.00
56334;BME280;42240;53.626;55.886;2023-10-13T00:55:44;76718.94;;;-145.10;100.00
56334;BME280;42240;53.626;55.886;2023-10-13T00:57:16;76722.91;;;-145.10;100.00
56334;BME280;42240;53.626;55.886;2023-10-13T00:59:04;76722.91;;;-145.10;100.00
56334;BME280;42240;53.626;55.886;2023-10-13T01:00:37;76726.84;;;-145.10;100.00
56334;BME280;42240;53.626;55.886;2023-10-13T01:02:19;76715.00;;;-145.10;100.00
56334;BME280;42240;53.626;55.886;2023-10-13T01:04:07;76711.03;;;-145.10;100.00
56334;BME280;42240;53.626;55.886;2023-10-13T01:05:41;76699.19;;;-145.10;100.00
56334;BME280;42240;53.626;55.886;2023-10-13T01:07:15;76697.19;;;-145.10;100.00
56334;BME280;42240;53.626;55.886;2023-10-13T01:08:59;76703.13;;;-145.10;100.00
56334;BME280;42240;53.626;55.886;2023-10-13T01:10:49;76695.22;;;-145.10;100.00
56334;BME280;42240;53.626;55.886;2023-10-13T01:12:22;76695.22;;;-145.10;100.00
56334;BME280;42240;53.626;55.886;2023-10-13T01:13:55;76687.31;;;-145.10;100.00
56334;BME280;42240;53.626;55.886;2023-10-13T01:15:29;76691.25;;;-145.10;100.00
56334;BME280;42240;53.626;55.886;2023-10-13T01:17:02;76683.34;;;-145.10;100.00
56334;BME280;42240;53.626;55.886;2023-10-13T01:18:36;76683.34;;;-145.10;100.00
56334;BME280;42240;53.626;55.886;2023-10-13T01:20:34;76667.53;;;-145.10;100.00
56334;BME280;42240;53.626;55.886;2023-10-13T01:22:15;76671.50;;;-145.10;100.00
56334;BME280;42240;53.626;55.886;2023-10-13T01:23:47;76661.59;;;-145.10;100.00
56334;BME280;42240;53.626;55.886;2023-10-13T01:25:24;76671.50;;;-145.10;100.00
56334;BME280;42240;53.626;55.886;2023-10-13T01:27:03;76669.50;;;-145.10;100.00
56334;BME280;42240;53.626;55.886;2023-10-13T01:28:59;76675.44;;;-145.10;100.00
56334;BME280;42240;53.626;55.886;2023-10-13T01:30:31;76665.56;;;-145.10;100.00
56334;BME280;42240;53.626;55.886;2023-10-13T01:32:04;76671.50;;;-145.10;100.00
56334;BME280;42240;53.626;55.886;2023-10-13T01:33:36;76689.28;;;-145.10;100.00
56334;BME280;42240;53.626;55.886;2023-10-13T01:35:09;76695.22;;;-145.10;100.00
56334;BME280;42240;53.626;55.886;2023-10-13T01:36:42;76685.34;;;-145.10;100.00
56334;BME280;42240;53.626;55.886;2023-10-13T01:38:16;76675.44;;;-145.10;100.00
56334;BME280;42240;53.626;55.886;2023-10-13T01:39:48;76679.41;;;-145.10;100.00
56334;BME280;42240;53.626;55.886;2023-10-13T01:41:23;76669.50;;;-145.10;100.00
56334;BME280;42240;53.626;55.886;2023-10-13T01:42:55;76669.50;;;-145.10;100.00
56334;BME280;42240;53.626;55.886;2023-10-13T01:44:28;76669.50;;;-145.10;100.00
56334;BME280;42240;53.626;55.886;2023-10-13T01:46:02;76663.59;;;-145.10;100.00
56334;BME280;42240;53.626;55.886;2023-10-13T01:47:35;76663.59;;;-145.10;100.00
56334;BME280;42240;53.626;55.886;2023-10-13T01:49:08;76647.75;;;-145.10;100.00
56334;BME280;42240;53.626;55.886;2023-10-13T01:50:41;76641.81;;;-145.10;100.00
56334;BME280;42240;53.626;55.886;2023-10-13T01:52:14;76639.84;;;-145.10;100.00
56334;BME280;42240;53.626;55.886;2023-10-13T01:53:50;76635.91;;;-145.10;100.00
56334;BME280;42240;53.626;55.886;2023-10-13T01:55:28;76639.84;;;-145.10;100.00
56334;BME280;42240;53.626;55.886;2023-10-13T01:57:01;76626.00;;;-145.10;100.00
56334;BME280;42240;53.626;55.886;2023-10-13T01:58:37;76624.03;;;-145.10;100.00
56334;BME280;42240;53.626;55.886;2023-10-13T02:00:10;76624.03;;;-145.10;100.00
56334;BME280;42240;53.626;55.886;2023-10-13T02:01:51;76616.13;;;-145.10;100.00
56334;BME280;42240;53.626;55.886;2023-10-13T02:03:24;76616.13;;;-145.10;100.00
56334;BME280;42240;53.626;55.886;2023-10-13T02:04:57;76631.94;;;-145.10;100.00
56334;BME280;42240;53.626;55.886;2023-10-13T02:06:35;76608.22;;;-145.10;100.00
56334;BME280;42240;53.626;55.886;2023-10-13T02:08:10;76614.16;;;-145.10;100.00
56334;BME280;42240;53.626;55.886;2023-10-13T02:09:49;76616.13;;;-145.10;100.00
56334;BME280;42240;53.626;55.886;2023-10-13T02:11:22;76616.13;;;-145.10;100.00
56334;BME280;42240;53.626;55.886;2023-10-13T02:12:54;76620.06;;;-145.10;100.00
56334;BME280;42240;53.626;55.886;2023-10-13T02:14:27;76620.06;;;-145.10;100.00
56334;BME280;42240;53.626;55.886;2023-10-13T02:16:00;76624.03;;;-145.10;100.00
56334;BME280;42240;53.626;55.886;2023-10-13T02:17:36;76620.06;;;-145.10;100.00
56334;BME280;42240;53.626;55.886;2023-10-13T02:19:14;76620.06;;;-145.10;100.00
56334;BME280;42240;53.626;55.886;2023-10-13T02:20:48;76600.31;;;-145.10;100.00
56334;BME280;42240;53.626;55.886;2023-10-13T02:22:27;76616.13;;;-145.10;100.00
56334;BME280;42240;53.626;55.886;2023-10-13T02:24:02;76626.00;;;-145.10;100.00
56334;BME280;42240;53.626;55.886;2023-10-13T02:25:37;76635.91;;;-145.10;100.00
56334;BME280;42240;53.626;55.886;2023-10-13T02:27:15;76633.91;;;-145.10;100.00
56334;BME280;42240;53.626;55.886;2023-10-13T02:28:49;76624.03;;;-145.10;100.00
56334;BME280;42240;53.626;55.886;2023-10-13T02:30:25;76635.91;;;-145.10;100.00
56334;BME280;42240;53.626;55.886;2023-10-13T02:32:00;76639.84;;;-145.10;100.00
56334;BME280;42240;53.626;55.886;2023-10-13T02:33:36;76651.72;;;-145.10;100.00
56334;BME280;42240;53.626;55.886;2023-10-13T02:35:17;76651.72;;;-145.10;100.00
56334;BME280;42240;53.626;55.886;2023-10-13T02:36:49;76643.81;;;-145.10;100.00
56334;BME280;42240;53.626;55.886;2023-10-13T02:38:22;76669.50;;;-145.10;100.00
56334;BME280;42240;53.626;55.886;2023-10-13T02:40:14;76669.50;;;-145.10;100.00
56334;BME280;42240;53.626;55.886;2023-10-13T02:41:47;76667.53;;;-145.10;100.00
56334;BME280;42240;53.626;55.886;2023-10-13T02:43:23;76675.44;;;-145.10;100.00
56334;BME280;42240;53.626;55.886;2023-10-13T02:44:55;76687.31;;;-145.10;100.00
56334;BME280;42240;53.626;55.886;2023-10-13T02:46:29;76693.25;;;-145.10;100.00
56334;BME280;42240;53.626;55.886;2023-10-13T02:48:03;76691.25;;;-145.10;100.00
56334;BME280;42240;53.626;55.886;2023-10-13T02:49:45;76691.25;;;-145.10;100.00
56334;BME280;42240;53.626;55.886;2023-10-13T02:51:20;76699.19;;;-145.10;100.00
56334;BME280;42240;53.626;55.886;2023-10-13T02:52:57;76687.31;;;-145.10;100.00
56334;BME280;42240;53.626;55.886;2023-10-13T02:54:30;76683.34;;;-145.10;100.00
56334;BME280;42240;53.626;55.886;2023-10-13T02:56:03;76707.09;;;-145.10;100.00
56334;BME280;42240;53.626;55.886;2023-10-13T02:57:39;76689.28;;;-145.10;100.00
56334;BME280;42240;53.626;55.886;2023-10-13T02:59:12;76703.13;;;-145.10;100.00
56334;BME280;42240;53.626;55.886;2023-10-13T03:00:45;76697.19;;;-145.10;100.00
56334;BME280;42240;53.626;55.886;2023-10-13T03:02:19;76693.25;;;-145.10;100.00
56334;BME280;42240;53.626;55.886;2023-10-13T03:03:54;76685.34;;;-145.10;100.00
56334;BME280;42240;53.626;55.886;2023-10-13T03:05:35;76689.28;;;-145.10;100.00
56334;BME280;42240;53.626;55.886;2023-10-13T03:07:11;76683.34;;;-145.10;100.00
56334;BME280;42240;53.626;55.886;2023-10-13T03:08:48;76695.22;;;-145.10;100.00
56334;BME280;42240;53.626;55.886;2023-10-13T03:10:22;76683.34;;;-145.10;100.00
56334;BME280;42240;53.626;55.886;2023-10-13T03:12:01;76683.34;;;-145.10;100.00
56334;BME280;42240;53.626;55.886;2023-10-13T03:13:34;76675.44;;;-145.10;100.00
56334;BME280;42240;53.626;55.886;2023-10-13T03:15:08;76683.34;;;-145.10;100.00
56334;BME280;42240;53.626;55.886;2023-10-13T03:16:53;76683.34;;;-145.10;100.00
56334;BME280;42240;53.626;55.886;2023-10-13T03:18:26;76679.41;;;-145.10;100.00
56334;BME280;42240;53.626;55.886;2023-10-13T03:20:07;76677.41;;;-145.10;100.00
56334;BME280;42240;53.626;55.886;2023-10-13T03:21:43;76667.53;;;-145.10;100.00
56334;BME280;42240;53.626;55.886;2023-10-13T03:23:17;76659.63;;;-145.10;100.00
56334;BME280;42240;53.626;55.886;2023-10-13T03:24:50;76651.72;;;-145.10;100.00
56334;BME280;42240;53.626;55.886;2023-10-13T03:26:25;76651.72;;;-145.10;100.00
56334;BME280;42240;53.626;55.886;2023-10-13T03:27:58;76651.72;;;-145.10;100.00
56334;BME280;42240;53.626;55.886;2023-10-13T03:29:36;76649.75;;;-145.10;100.00
56334;BME280;42240;53.626;55.886;2023-10-13T03:31:11;76671.50;;;-145.10;100.00
56334;BME280;42240;53.626;55.886;2023-10-13T03:32:50;76675.44;;;-145.10;100.00
56334;BME280;42240;53.626;55.886;2023-10-13T03:34:26;76667.53;;;-145.10;100.00
56334;BME280;42240;53.626;55.886;2023-10-13T03:36:01;76669.50;;;-145.10;100.00
56334;BME280;42240;53.626;55.886;2023-10-13T03:37:41;76675.44;;;-145.10;100.00
56334;BME280;42240;53.626;55.886;2023-10-13T03:39:14;76671.50;;;-145.10;100.00
56334;BME280;42240;53.626;55.886;2023-10-13T03:40:48;76671.50;;;-145.10;100.00
56334;BME280;42240;53.626;55.886;2023-10-13T03:42:21;76677.41;;;-145.10;100.00
56334;BME280;42240;53.626;55.886;2023-10-13T03:43:54;76685.34;;;-145.10;100.00
56334;BME280;42240;53.626;55.886;2023-10-13T03:45:40;76683.34;;;-145.10;100.00
56334;BME280;42240;53.626;55.886;2023-10-13T03:47:16;76683.34;;;-145.10;100.00
56334;BME280;42240;53.626;55.886;2023-10-13T03:48:58;76679.41;;;-145.10;100.00
56334;BME280;42240;53.626;55.886;2023-10-13T03:50:37;76675.44;;;-145.10;100.00
56334;BME280;42240;53.626;55.886;2023-10-13T03:52:18;76675.44;;;-145.10;100.00
56334;BME280;42240;53.626;55.886;2023-10-13T03:53:54;76667.53;;;-145.10;100.00
56334;BME280;42240;53.626;55.886;2023-10-13T03:55:27;76683.34;;;-145.10;100.00
56334;BME280;42240;53.626;55.886;2023-10-13T03:57:07;76673.47;;;-145.10;100.00
56334;BME280;42240;53.626;55.886;2023-10-13T03:58:43;76663.59;;;-145.10;100.00
56334;BME280;42240;53.626;55.886;2023-10-13T04:00:19;76671.50;;;-145.10;100.00
56334;BME280;42240;53.626;55.886;2023-10-13T04:01:57;76667.53;;;-145.10;100.00
56334;BME280;42240;53.626;55.886;2023-10-13T04:03:35;76663.59;;;-145.10;100.00
56334;BME280;42240;53.626;55.886;2023-10-13T04:05:08;76671.50;;;-145.10;100.00
56334;BME280;42240;53.626;55.886;2023-10-13T04:06:42;76671.50;;;-145.10;100.00
56334;BME280;42240;53.626;55.886;2023-10-13T04:08:24;76667.53;;;-145.10;100.00
56334;BME280;42240;53.626;55.886;2023-10-13T04:09:59;76657.66;;;-145.10;100.00
56334;BME280;42240;53.626;55.886;2023-10-13T04:11:53;76655.66;;;-145.10;100.00
56334;BME280;42240;53.626;55.886;2023-10-13T04:13:35;76651.72;;;-145.10;100.00
56334;BME280;42240;53.626;55.886;2023-10-13T04:15:10;76647.75;;;-145.10;100.00
56334;BME280;42240;53.626;55.886;2023-10-13T04:16:54;76657.66;;;-145.10;100.00
56334;BME280;42240;53.626;55.886;2023-10-13T04:18:27;76661.59;;;-145.10;100.00
56334;BME280;42240;53.626;55.886;2023-10-13T04:20:23;76653.69;;;-145.10;100.00
56334;BME280;42240;53.626;55.886;2023-10-13T04:22:01;76647.75;;;-145.10;100.00
56334;BME280;42240;53.626;55.886;2023-10-13T04:23:48;76647.75;;;-145.10;100.00
56334;BME280;42240;53.626;55.886;2023-10-13T04:25:39;76639.84;;;-145.10;100.00
56334;BME280;42240;53.626;55.886;2023-10-13T04:27:14;76643.81;;;-145.10;100.00
56334;BME280;42240;53.626;55.886;2023-10-13T04:28:57;76639.84;;;-145.10;100.00
56334;BME280;42240;53.626;55.886;2023-10-13T04:30:35;76626.00;;;-145.10;100.00
56334;BME280;42240;53.626;55.886;2023-10-13T04:32:24;76631.94;;;-145.10;100.00
56334;BME280;42240;53.626;55.886;2023-10-13T04:34:11;76610.19;;;-145.10;100.00
56334;BME280;42240;53.626;55.886;2023-10-13T04:35:58;76610.19;;;-145.10;100.00
56334;BME280;42240;53.626;55.886;2023-10-13T04:37:33;76606.22;;;-145.10;100.00
56334;BME280;42240;53.626;55.886;2023-10-13T04:39:21;76592.41;;;-145.10;100.00
56334;BME280;42240;53.626;55.886;2023-10-13T04:41:09;76596.34;;;-145.10;100.00
56334;BME280;42240;53.626;55.886;2023-10-13T04:42:54;76584.47;;;-145.10;100.00
56334;BME280;42240;53.626;55.886;2023-10-13T04:44:29;76576.56;;;-145.10;100.00
56334;BME280;42240;53.626;55.886;2023-10-13T04:46:02;76562.72;;;-145.10;100.00
56334;BME280;42240;53.626;55.886;2023-10-13T04:47:58;76564.72;;;-145.10;100.00
56334;BME280;42240;53.626;55.886;2023-10-13T04:49:46;76562.72;;;-145.10;100.00
56334;BME280;42240;53.626;55.886;2023-10-13T04:51:19;76562.72;;;-145.10;100.00
56334;BME280;42240;53.626;55.886;2023-10-13T04:53:15;76552.84;;;-145.10;100.00
56334;BME280;42240;53.626;55.886;2023-10-13T04:55:02;76556.81;;;-145.10;100.00
56334;BME280;42240;53.626;55.886;2023-10-13T04:57:05;76550.88;;;-145.10;100.00
56334;BME280;42240;53.626;55.886;2023-10-13T04:59:02;76552.84;;;-145.10;100.00
56334;BME280;42240;53.626;55.886;2023-10-13T05:00:58;76548.88;;;-145.10;100.00
56334;BME280;42240;53.626;55.886;2023-10-13T05:02:50;76548.88;;;-145.10;100.00
56334;BME280;42240;53.626;55.886;2023-10-13T05:04:41;76544.94;;;-145.10;100.00
56334;BME280;42240;53.626;55.886;2023-10-13T05:06:32;76540.97;;;-145.10;100.00
56334;BME280;42240;53.626;55.886;2023-10-13T05:08:13;76540.97;;;-145.10;100.00
56334;BME280;42240;53.626;55.886;2023-10-13T05:10:05;76535.06;;;-145.10;100.00
56334;BME280;42240;53.626;55.886;2023-10-13T05:11:56;76529.13;;;-145.10;100.00
56334;BME280;42240;53.626;55.886;2023-10-13T05:13:47;76537.03;;;-145.10;100.00
56334;BME280;42240;53.626;55.886;2023-10-13T05:15:43;76535.06;;;-145.10;100.00
56334;BME280;42240;53.626;55.886;2023-10-13T05:17:35;76529.13;;;-145.10;100.00
56334;BME280;42240;53.626;55.886;2023-10-13T05:19:26;76525.16;;;-145.10;100.00
56334;BME280;42240;53.626;55.886;2023-10-13T05:21:17;76533.06;;;-145.10;100.00
56334;BME280;42240;53.626;55.886;2023-10-13T05:23:08;76527.13;;;-145.10;100.00
56334;BME280;42240;53.626;55.886;2023-10-13T05:24:59;76525.16;;;-145.10;100.00
56334;BME280;42240;53.626;55.886;2023-10-13T05:26:50;76537.03;;;-145.10;100.00
56334;BME280;42240;53.626;55.886;2023-10-13T05:28:42;76527.13;;;-145.10;100.00
56334;BME280;42240;53.626;55.886;2023-10-13T05:30:45;76515.28;;;-145.10;100.00
56334;BME280;42240;53.626;55.886;2023-10-13T05:32:38;76521.22;;;-145.10;100.00
56334;BME280;42240;53.626;55.886;2023-10-13T05:34:30;76515.28;;;-145.10;100.00
56334;BME280;42240;53.626;55.886;2023-10-13T05:36:21;76513.28;;;-145.10;100.00
56334;BME280;42240;53.626;55.886;2023-10-13T05:38:12;76505.38;;;-145.10;100.00
56334;BME280;42240;53.626;55.886;2023-10-13T05:40:03;76509.34;;;-145.10;100.00
56334;BME280;42240;53.626;55.886;2023-10-13T05:41:55;76511.31;;;-145.10;100.00
56334;BME280;42240;53.626;55.886;2023-10-13T05:43:46;76513.28;;;-145.10;100.00
56334;BME280;42240;53.626;55.886;2023-10-13T05:45:37;76505.38;;;-145.10;100.00
56334;BME280;42240;53.626;55.886;2023-10-13T05:47:36;76509.34;;;-145.10;100.00
56334;BME280;42240;53.626;55.886;2023-10-13T05:49:15;76505.38;;;-145.10;100.00
56334;BME280;42240;53.626;55.886;2023-10-13T05:50:48;76493.53;;;-145.10;100.00
56334;BME280;42240;53.626;55.886;2023-10-13T05:52:49;76487.59;;;-145.10;100.00
56334;BME280;42240;53.626;55.886;2023-10-13T05:54:29;76485.63;;;-145.10;100.00
56334;BME280;42240;53.626;55.886;2023-10-13T05:56:20;76481.66;;;-145.10;100.00
56334;BME280;42240;53.626;55.886;2023-10-13T05:58:11;76483.63;;;-145.10;100.00
56334;BME280;42240;53.626;55.886;2023-10-13T06:00:02;76469.78;;;-145.10;100.00
56334;BME280;42240;53.626;55.886;2023-10-13T06:01:53;76459.91;;;-145.10;100.00
56334;BME280;42240;53.626;55.886;2023-10-13T06:03:44;76457.94;;;-145.10;100.00
56334;BME280;42240;53.626;55.886;2023-10-13T06:05:35;76446.06;;;-145.10;100.00
56334;BME280;42240;53.626;55.886;2023-10-13T06:07:26;76440.13;;;-145.10;100.00
56334;BME280;42240;53.626;55.886;2023-10-13T06:09:17;76440.13;;;-145.10;100.00
56334;BME280;42240;53.626;55.886;2023-10-13T06:11:08;76444.09;;;-145.10;100.00
56334;BME280;42240;53.626;55.886;2023-10-13T06:12:59;76434.19;;;-145.10;100.00
56334;BME280;42240;53.626;55.886;2023-10-13T06:14:50;76434.19;;;-145.10;100.00
56334;BME280;42240;53.626;55.886;2023-10-13T06:16:41;76438.16;;;-145.10;100.00
56334;BME280;42240;53.626;55.886;2023-10-13T06:18:32;76426.28;;;-145.10;100.00
56334;BME280;42240;53.626;55.886;2023-10-13T06:20:24;76428.28;;;-145.10;100.00
56334;BME280;42240;53.626;55.886;2023-10-13T06:22:14;76426.28;;;-145.10;100.00
56334;BME280;42240;53.626;55.886;2023-10-13T06:24:25;76424.31;;;-145.10;100.00
56334;BME280;42240;53.626;55.886;2023-10-13T06:26:17;76424.31;;;-145.10;100.00
56334;BME280;42240;53.626;55.886;2023-10-13T06:28:08;76416.41;;;-145.10;100.00
56334;BME280;42240;53.626;55.886;2023-10-13T06:29:58;76418.38;;;-145.10;100.00
56334;BME280;42240;53.626;55.886;2023-10-13T06:31:34;76422.34;;;-145.10;100.00
56334;BME280;42240;53.626;55.886;2023-10-13T06:33:07;76418.38;;;-145.10;100.00
56334;BME280;42240;53.626;55.886;2023-10-13T06:34:40;76426.28;;;-145.10;100.00
56334;BME280;42240;53.626;55.886;2023-10-13T06:36:20;76414.44;;;-145.10;100.00
56334;BME280;42240;53.626;55.886;2023-10-13T06:37:53;76420.38;;;-145.10;100.00
56334;BME280;42240;53.626;55.886;2023-10-13T06:39:25;76410.47;;;-145.10;100.00
56334;BME280;42240;53.626;55.886;2023-10-13T06:41:07;76410.47;;;-145.10;100.00
56334;BME280;42240;53.626;55.886;2023-10-13T06:42:40;76406.53;;;-145.10;100.00
56334;BME280;42240;53.626;55.886;2023-10-13T06:44:15;76410.47;;;-145.10;100.00
56334;BME280;42240;53.626;55.886;2023-10-13T06:45:48;76398.63;;;-145.10;100.00
56334;BME280;42240;53.626;55.886;2023-10-13T06:47:36;76404.53;;;-145.10;100.00
56334;BME280;42240;53.626;55.886;2023-10-13T06:49:15;76398.63;;;-145.10;100.00
56334;BME280;42240;53.626;55.886;2023-10-13T06:50:51;76406.53;;;-145.10;100.00
56334;BME280;42240;53.626;55.886;2023-10-13T06:52:28;76408.50;;;-145.10;100.00
56334;BME280;42240;53.626;55.886;2023-10-13T06:54:01;76402.56;;;-145.10;100.00
56334;BME280;42240;53.626;55.886;2023-10-13T06:55:37;76406.53;;;-145.10;100.00
56334;BME280;42240;53.626;55.886;2023-10-13T06:57:12;76394.66;;;-145.10;100.00
56334;BME280;42240;53.626;55.886;2023-10-13T06:58:52;76402.56;;;-145.10;100.00
56334;BME280;42240;53.626;55.886;2023-10-13T07:00:32;76398.63;;;-145.10;100.00
56334;BME280;42240;53.626;55.886;2023-10-13T07:02:10;76402.56;;;-145.10;100.00
56334;BME280;42240;53.626;55.886;2023-10-13T07:03:59;76406.53;;;-145.10;100.00
56334;BME280;42240;53.626;55.886;2023-10-13T07:05:36;76402.56;;;-145.10;100.00
56334;BME280;42240;53.626;55.886;2023-10-13T07:07:10;76400.59;;;-145.10;100.00
56334;BME280;42240;53.626;55.886;2023-10-13T07:08:43;76400.59;;;-145.10;100.00
56334;BME280;42240;53.626;55.886;2023-10-13T07:10:19;76402.56;;;-145.10;100.00
56334;BME280;42240;53.626;55.886;2023-10-13T07:11:52;76406.53;;;-145.10;100.00
56334;BME280;42240;53.626;55.886;2023-10-13T07:13:25;76404.53;;;-145.10;100.00
56334;BME280;42240;53.626;55.886;2023-10-13T07:15:00;76398.63;;;-145.10;100.00
56334;BME280;42240;53.626;55.886;2023-10-13T07:16:57;76394.66;;;-145.10;100.00
56334;BME280;42240;53.626;55.886;2023-10-13T07:18:33;76396.63;;;-145.10;100.00
56334;BME280;42240;53.626;55.886;2023-10-13T07:20:10;76396.63;;;-145.10;100.00
56334;BME280;42240;53.626;55.886;2023-10-13T07:22:18;76388.72;;;-145.10;100.00
56334;BME280;42240;53.626;55.886;2023-10-13T07:23:54;76386.75;;;-145.10;100.00
56334;BME280;42240;53.626;55.886;2023-10-13T07:25:53;76363.03;;;-145.10;100.00
56334;BME280;42240;53.626;55.886;2023-10-13T07:27:27;76370.94;;;-145.10;100.00
56334;BME280;42240;53.626;55.886;2023-10-13T07:29:00;76370.94;;;-145.10;100.00
56334;BME280;42240;53.626;55.886;2023-10-13T07:30:33;76365.00;;;-145.10;100.00
56334;BME280;42240;53.626;55.886;2023-10-13T07:32:41;76345.22;;;-145.10;100.00
56334;BME280;42240;53.626;55.886;2023-10-13T07:34:23;76351.16;;;-145.10;100.00
56334;BME280;42240;53.626;55.886;2023-10-13T07:36:04;76351.16;;;-145.10;100.00
56334;BME280;42240;53.626;55.886;2023-10-13T07:37:48;76355.13;;;-145.10;100.00
56334;BME280;42240;53.626;55.886;2023-10-13T07:39:25;76339.28;;;-145.10;100.00
56334;BME280;42240;53.626;55.886;2023-10-13T07:40:58;76347.19;;;-145.10;100.00
56334;BME280;42240;53.626;55.886;2023-10-13T07:42:39;76339.28;;;-145.10;100.00
56334;BME280;42240;53.626;55.886;2023-10-13T07:44:12;76331.38;;;-145.10;100.00
56334;BME280;42240;53.626;55.886;2023-10-13T07:45:46;76331.38;;;-145.10;100.00
56334;BME280;42240;53.626;55.886;2023-10-13T07:47:23;76321.50;;;-145.10;100.00
56334;BME280;42240;53.626;55.886;2023-10-13T07:48:59;76309.63;;;-145.10;100.00
56334;BME280;42240;53.626;55.886;2023-10-13T07:50:48;76323.47;;;-145.10;100.00
56334;BME280;42240;53.626;55.886;2023-10-13T07:52:30;76327.44;;;-145.10;100.00
56334;BME280;42240;53.626;55.886;2023-10-13T07:54:18;76319.53;;;-145.10;100.00
56334;BME280;42240;53.626;55.886;2023-10-13T07:55:54;76311.63;;;-145.10;100.00
56334;BME280;42240;53.626;55.886;2023-10-13T07:57:35;76303.69;;;-145.10;100.00
56334;BME280;42240;53.626;55.886;2023-10-13T07:59:08;76311.63;;;-145.10;100.00
56334;BME280;42240;53.626;55.886;2023-10-13T08:00:42;76313.59;;;-145.10;100.00
56334;BME280;42240;53.626;55.886;2023-10-13T08:02:20;76311.63;;;-145.10;100.00
56334;BME280;42240;53.626;55.886;2023-10-13T08:04:11;76303.69;;;-145.10;100.00
56334;BME280;42240;53.626;55.886;2023-10-13T08:05:45;76321.50;;;-145.10;100.00
56334;BME280;42240;53.626;55.886;2023-10-13T08:07:37;76315.56;;;-145.10;100.00
56334;BME280;42240;53.626;55.886;2023-10-13T08:09:12;76323.47;;;-145.10;100.00
56334;BME280;42240;53.626;55.886;2023-10-13T08:11:08;76317.53;;;-145.10;100.00
56334;BME280;42240;53.626;55.886;2023-10-13T08:12:44;76315.56;;;-145.10;100.00
56334;BME280;42240;53.626;55.886;2023-10-13T08:14:16;76317.53;;;-145.10;100.00
56334;BME280;42240;53.626;55.886;2023-10-13T08:16:01;76313.59;;;-145.10;100.00
56334;BME280;42240;53.626;55.886;2023-10-13T08:17:38;76309.63;;;-145.10;100.00
56334;BME280;42240;53.626;55.886;2023-10-13T08:19:17;76313.59;;;-145.10;100.00
56334;BME280;42240;53.626;55.886;2023-10-13T08:20:50;76307.66;;;-145.10;100.00
56334;BME280;42240;53.626;55.886;2023-10-13T08:22:24;76309.63;;;-145.10;100.00
56334;BME280;42240;53.626;55.886;2023-10-13T08:23:57;76311.63;;;-145.10;100.00